Time,TemperatureF,DewpointF,PressureIn,WindDirection,WindDirectionDegrees,WindSpeedMPH,WindSpeedGustMPH,Humidity,HourlyPrecipIn,Conditions,Clouds,dailyrainin,SoftwareType,DateUTC
2013-01-24 00:00:00,24.1,18.8,30.10,North,-999,0.0,0.0,80,0.00,,,-99.99,WeatherLink 5.9.2,2013-01-24 05:00:00,
2013-01-24 00:01:00,23.9,18.0,60.28,North,358,0.0,0.0,78,0.00,,,0.00,Wunderground v.1.15,2013-01-24 05:01:00,
2013-01-24 00:11:00,23.8,18.2,60.27,North,358,0.0,0.0,79,0.00,,,0.00,Wunderground v.1.15,2013-01-24 05:11:00,
2013-01-24 00:20:00,23.8,18.2,60.27,North,358,0.0,0.0,79,0.00,,,0.00,Wunderground v.1.15,2013-01-24 05:20:00,
2013-01-24 00:26:00,23.9,18.3,60.27,North,358,0.0,0.0,79,0.00,,,0.00,Wunderground v.1.15,2013-01-24 05:26:00,
2013-01-24 00:30:00,24.1,18.8,30.09,North,-999,0.0,0.0,80,0.00,,,-99.99,WeatherLink 5.9.2,2013-01-24 05:30:00,
2013-01-24 00:35:00,23.9,18.3,60.27,North,358,0.0,0.0,79,0.00,,,0.00,Wunderground v.1.15,2013-01-24 05:35:00,
2013-01-24 00:40:00,24.0,18.4,60.26,North,358,0.0,0.0,79,0.00,,,0.00,Wunderground v.1.15,2013-01-24 05:40:00,
2013-01-24 00:51:00,24.1,18.5,60.26,North,358,0.0,0.0,79,0.00,,,0.00,Wunderground v.1.15,2013-01-24 05:51:00,
2013-01-24 01:00:00,24.1,18.5,60.25,North,358,0.0,0.0,79,0.00,,,0.00,Wunderground v.1.15,2013-01-24 06:00:00,
2013-01-24 01:05:00,24.2,18.6,60.24,North,358,0.0,0.0,79,0.00,,,0.00,Wunderground v.1.15,2013-01-24 06:05:00,
2013-01-24 01:11:00,24.1,18.5,60.24,North,358,0.0,0.0,79,0.00,,,0.00,Wunderground v.1.15,2013-01-24 06:11:00,
2013-01-24 01:20:00,24.0,18.4,60.24,North,358,0.0,0.0,79,0.00,,,0.00,Wunderground v.1.15,2013-01-24 06:20:00,
2013-01-24 01:26:00,24.1,18.5,60.24,North,358,0.0,0.0,79,0.00,,,0.00,Wunderground v.1.15,2013-01-24 06:26:00,
2013-01-24 01:30:00,25.5,21.3,30.04,SW,225,0.0,6.0,84,0.00,,,-99.99,WeatherLink 5.9.2,2013-01-24 06:30:00,
2013-01-24 01:35:00,24.1,18.8,60.23,North,358,0.0,0.0,80,0.00,,,0.00,Wunderground v.1.15,2013-01-24 06:35:00,
2013-01-24 01:40:00,24.2,18.9,60.22,North,358,0.0,0.0,80,0.00,,,0.00,Wunderground v.1.15,2013-01-24 06:40:00,
2013-01-24 01:51:00,24.3,19.0,60.22,North,358,0.0,0.0,80,0.00,,,0.00,Wunderground v.1.15,2013-01-24 06:51:00,
2013-01-24 02:00:00,24.4,19.1,60.21,North,358,0.0,0.0,80,0.00,,,0.00,Wunderground v.1.15,2013-01-24 07:00:00,
2013-01-24 02:10:00,24.8,19.5,60.20,SW,222,0.0,0.0,80,0.00,,,0.00,Wunderground v.1.15,2013-01-24 07:10:00,
2013-01-24 02:16:00,25.0,19.7,60.20,SW,235,0.0,0.0,80,0.00,,,0.00,Wunderground v.1.15,2013-01-24 07:16:00,
2013-01-24 02:21:00,25.2,20.2,60.19,SW,230,0.0,0.0,81,0.00,,,0.00,Wunderground v.1.15,2013-01-24 07:21:00,
2013-01-24 02:30:00,26.8,22.3,60.19,WSW,246,0.0,0.0,83,0.00,,,0.00,Wunderground v.1.15,2013-01-24 07:30:00,
2013-01-24 02:36:00,28.5,24.3,60.18,SW,221,1.0,1.0,84,0.00,,,0.00,Wunderground v.1.15,2013-01-24 07:36:00,
2013-01-24 02:46:00,31.5,27.5,60.18,WSW,242,0.0,3.0,85,0.00,,,0.00,Wunderground v.1.15,2013-01-24 07:46:00,
2013-01-24 02:55:00,32.4,28.7,60.18,West,261,0.0,0.0,86,0.00,,,0.00,Wunderground v.1.15,2013-01-24 07:55:00,
2013-01-24 03:00:00,33.1,29.4,60.18,SW,224,5.0,5.0,86,0.00,,,0.00,Wunderground v.1.15,2013-01-24 08:00:00,
2013-01-24 03:10:00,35.9,32.1,60.17,West,269,4.0,4.0,86,0.00,,,0.00,Wunderground v.1.15,2013-01-24 08:10:00,
2013-01-24 03:21:00,37.4,33.0,60.16,WSW,238,4.0,4.0,84,0.00,,,0.00,Wunderground v.1.15,2013-01-24 08:21:00,
2013-01-24 03:30:00,38.6,33.3,60.15,West,260,2.0,2.0,81,0.00,,,0.00,Wunderground v.1.15,2013-01-24 08:30:00,
2013-01-24 03:36:00,39.4,33.4,60.16,West,267,1.0,2.0,79,0.00,,,0.00,Wunderground v.1.15,2013-01-24 08:36:00,
2013-01-24 03:45:00,40.5,33.2,60.15,SW,229,2.0,4.0,75,0.00,,,0.00,Wunderground v.1.15,2013-01-24 08:45:00,
2013-01-24 03:55:00,41.6,33.2,60.14,West,269,0.0,10.0,72,0.00,,,0.00,Wunderground v.1.15,2013-01-24 08:55:00,
2013-01-24 04:00:00,41.3,31.9,29.99,West,270,2.0,9.0,69,0.00,,,-99.99,WeatherLink 5.9.2,2013-01-24 09:00:00,
2013-01-24 04:01:00,41.4,33.0,60.14,West,279,0.0,0.0,72,0.00,,,0.00,Wunderground v.1.15,2013-01-24 09:01:00,
2013-01-24 04:10:00,41.4,32.7,60.13,West,273,1.0,1.0,71,0.00,,,0.00,Wunderground v.1.15,2013-01-24 09:10:00,
2013-01-24 04:16:00,41.6,32.5,60.13,WSW,252,3.0,3.0,70,0.00,,,0.00,Wunderground v.1.15,2013-01-24 09:16:00,
2013-01-24 04:25:00,41.7,31.9,60.13,West,261,5.0,5.0,68,0.00,,,0.00,Wunderground v.1.15,2013-01-24 09:25:00,
2013-01-24 04:30:00,40.1,31.4,29.99,West,270,1.0,7.0,71,0.00,,,-99.99,WeatherLink 5.9.2,2013-01-24 09:30:00,
2013-01-24 04:35:00,41.9,32.1,60.13,WSW,241,0.0,0.0,68,0.00,,,0.00,Wunderground v.1.15,2013-01-24 09:35:00,
2013-01-24 04:40:00,41.8,32.0,60.13,WNW,282,0.0,0.0,68,0.00,,,0.00,Wunderground v.1.15,2013-01-24 09:40:00,
2013-01-24 04:45:00,41.4,31.6,60.14,West,263,0.0,0.0,68,0.00,,,0.00,Wunderground v.1.15,2013-01-24 09:45:00,
2013-01-24 04:55:00,41.0,31.6,60.13,West,274,6.0,6.0,69,0.00,,,0.00,Wunderground v.1.15,2013-01-24 09:55:00,
2013-01-24 05:00:00,39.2,30.6,29.99,West,270,2.0,8.0,71,0.00,,,-99.99,WeatherLink 5.9.2,2013-01-24 10:00:00,
2013-01-24 05:05:00,40.9,31.5,60.13,West,279,1.0,8.0,69,0.00,,,0.00,Wunderground v.1.15,2013-01-24 10:05:00,
2013-01-24 05:10:00,40.7,31.3,60.13,WNW,297,2.0,2.0,69,0.00,,,0.00,Wunderground v.1.15,2013-01-24 10:10:00,
2013-01-24 05:20:00,39.9,30.5,60.13,WNW,283,0.0,0.0,69,0.00,,,0.00,Wunderground v.1.15,2013-01-24 10:20:00,
2013-01-24 05:30:00,39.4,30.4,60.13,West,261,2.0,2.0,70,0.00,,,0.00,Wunderground v.1.15,2013-01-24 10:30:00,
2013-01-24 05:40:00,39.1,30.5,60.13,WNW,291,2.0,2.0,71,0.00,,,0.00,Wunderground v.1.15,2013-01-24 10:40:00,
2013-01-24 05:50:00,39.2,30.6,60.13,West,272,4.0,4.0,71,0.00,,,0.00,Wunderground v.1.15,2013-01-24 10:50:00,
2013-01-24 05:59:00,39.5,30.9,60.13,West,275,0.0,0.0,71,0.00,,,0.00,Wunderground v.1.15,2013-01-24 10:59:00,
2013-01-24 06:00:00,40.1,30.7,30.00,WNW,292,4.0,14.0,69,0.00,,,-99.99,WeatherLink 5.9.2,2013-01-24 11:00:00,
2013-01-24 06:05:00,39.3,30.7,60.13,West,278,1.0,1.0,71,0.00,,,0.00,Wunderground v.1.15,2013-01-24 11:05:00,
2013-01-24 06:10:00,39.2,30.9,60.14,WNW,286,3.0,3.0,72,0.00,,,0.00,Wunderground v.1.15,2013-01-24 11:10:00,
2013-01-24 06:20:00,39.6,31.0,60.14,West,263,3.0,3.0,71,0.00,,,0.00,Wunderground v.1.15,2013-01-24 11:20:00,
2013-01-24 06:30:00,39.7,31.1,60.14,West,265,4.0,4.0,71,0.00,,,0.00,Wunderground v.1.15,2013-01-24 11:30:00,
2013-01-24 06:40:00,39.7,31.1,60.14,WNW,299,1.0,1.0,71,0.00,,,0.00,Wunderground v.1.15,2013-01-24 11:40:00,
2013-01-24 06:50:00,40.1,31.4,60.14,NW,306,4.0,4.0,71,0.00,,,0.00,Wunderground v.1.15,2013-01-24 11:50:00,
2013-01-24 07:00:00,40.6,31.6,60.14,WNW,288,5.0,5.0,70,0.00,,,0.00,Wunderground v.1.15,2013-01-24 12:00:00,
2013-01-24 07:10:00,41.1,31.7,60.14,WNW,282,8.0,8.0,69,0.00,,,0.00,Wunderground v.1.15,2013-01-24 12:10:00,
2013-01-24 07:19:00,41.5,32.1,60.15,NNW,333,4.0,4.0,69,0.00,,,0.00,Wunderground v.1.15,2013-01-24 12:19:00,
2013-01-24 07:25:00,41.4,31.6,60.15,WNW,292,7.0,7.0,68,0.00,,,0.00,Wunderground v.1.15,2013-01-24 12:25:00,
2013-01-24 07:30:00,42.9,31.6,30.08,NW,315,10.0,22.0,64,0.00,,,-99.99,WeatherLink 5.9.2,2013-01-24 12:30:00,
2013-01-24 07:34:00,41.6,31.8,60.15,WNW,296,4.0,8.0,68,0.00,,,0.00,Wunderground v.1.15,2013-01-24 12:34:00,
2013-01-24 07:40:00,41.8,32.0,60.16,West,280,6.0,6.0,68,0.00,,,0.00,Wunderground v.1.15,2013-01-24 12:40:00,
2013-01-24 07:50:00,42.1,31.9,60.17,WNW,302,6.0,6.0,67,0.00,,,0.00,Wunderground v.1.15,2013-01-24 12:50:00,
2013-01-24 08:00:00,42.6,32.4,60.18,WNW,294,13.0,13.0,67,0.00,,,0.00,Wunderground v.1.15,2013-01-24 13:00:00,
2013-01-24 08:09:00,42.8,32.2,60.19,WNW,293,9.0,9.0,66,0.00,,,0.00,Wunderground v.1.15,2013-01-24 13:09:00,
2013-01-24 08:20:00,43.1,31.7,60.21,NW,306,11.0,11.0,64,0.00,,,0.00,Wunderground v.1.15,2013-01-24 13:20:00,
2013-01-24 08:30:00,42.8,31.5,60.22,NNW,327,12.0,12.0,64,0.00,,,0.00,Wunderground v.1.15,2013-01-24 13:30:00,
2013-01-24 08:40:00,42.1,30.4,60.23,NW,313,9.0,9.0,63,0.00,,,0.00,Wunderground v.1.15,2013-01-24 13:40:00,
2013-01-24 08:50:00,41.4,29.3,60.24,NNW,330,10.0,10.0,62,0.00,,,0.00,Wunderground v.1.15,2013-01-24 13:50:00,
2013-01-24 09:00:00,40.9,27.7,60.25,NNE,28,12.0,12.0,59,0.00,,,0.00,Wunderground v.1.15,2013-01-24 14:00:00,
2013-01-24 09:10:00,40.3,25.8,60.25,NNW,347,6.0,6.0,56,0.00,,,0.00,Wunderground v.1.15,2013-01-24 14:10:00,
2013-01-24 09:20:00,40.1,26.1,60.26,NW,326,6.0,6.0,57,0.00,,,0.00,Wunderground v.1.15,2013-01-24 14:20:00,
2013-01-24 09:29:00,40.2,25.7,60.28,North,6,6.0,6.0,56,0.00,,,0.00,Wunderground v.1.15,2013-01-24 14:29:00,
2013-01-24 09:30:00,39.9,19.7,30.18,North,0,10.0,25.0,44,0.00,,,-99.99,WeatherLink 5.9.2,2013-01-24 14:30:00,
2013-01-24 09:39:00,40.1,24.8,60.28,North,356,5.0,5.0,54,0.00,,,0.00,Wunderground v.1.15,2013-01-24 14:39:00,
2013-01-24 09:45:00,40.3,24.5,60.29,NW,324,4.0,5.0,53,0.00,,,0.00,Wunderground v.1.15,2013-01-24 14:45:00,
2013-01-24 09:55:00,40.3,23.6,60.30,NNW,335,9.0,9.0,51,0.00,,,0.00,Wunderground v.1.15,2013-01-24 14:55:00,
2013-01-24 10:00:00,41.4,18.9,30.20,North,0,9.0,23.0,40,0.00,,,-99.99,WeatherLink 5.9.2,2013-01-24 15:00:00,
2013-01-24 10:05:00,39.6,21.5,60.31,NNW,343,11.0,11.0,48,0.00,,,0.00,Wunderground v.1.15,2013-01-24 15:05:00,
2013-01-24 10:14:00,39.7,21.6,60.32,NNW,333,7.0,12.0,48,0.00,,,0.00,Wunderground v.1.15,2013-01-24 15:14:00,
2013-01-24 10:20:00,39.9,20.8,60.32,North,7,11.0,11.0,46,0.00,,,0.00,Wunderground v.1.15,2013-01-24 15:20:00,
2013-01-24 10:29:00,40.3,20.1,60.32,NNE,17,10.0,10.0,44,0.00,,,0.00,Wunderground v.1.15,2013-01-24 15:29:00,
2013-01-24 10:30:00,40.9,17.8,30.20,North,0,10.0,21.0,39,0.00,,,-99.99,WeatherLink 5.9.2,2013-01-24 15:30:00,
2013-01-24 10:39:00,40.7,21.0,60.33,NW,320,15.0,15.0,45,0.00,,,0.00,Wunderground v.1.15,2013-01-24 15:39:00,
2013-01-24 10:50:00,41.6,20.7,60.33,NNW,328,10.0,10.0,43,0.00,,,0.00,Wunderground v.1.15,2013-01-24 15:50:00,
2013-01-24 10:55:00,41.9,20.4,60.34,NNW,331,13.0,13.0,42,0.00,,,0.00,Wunderground v.1.15,2013-01-24 15:55:00,
2013-01-24 11:00:00,40.0,18.2,30.22,North,0,9.0,20.0,41,0.00,,,-99.99,WeatherLink 5.9.2,2013-01-24 16:00:00,
2013-01-24 11:04:00,41.5,18.4,60.34,NNW,339,13.0,13.0,39,0.00,,,0.00,Wunderground v.1.15,2013-01-24 16:04:00,
2013-01-24 11:09:00,41.3,18.2,60.35,North,5,14.0,14.0,39,0.00,,,0.00,Wunderground v.1.15,2013-01-24 16:09:00,
2013-01-24 11:20:00,40.8,18.3,60.34,NNE,23,9.0,9.0,40,0.00,,,0.00,Wunderground v.1.15,2013-01-24 16:20:00,
2013-01-24 11:29:00,40.6,18.1,60.35,North,8,15.0,15.0,40,0.00,,,0.00,Wunderground v.1.15,2013-01-24 16:29:00,
2013-01-24 11:30:00,39.9,18.1,30.23,North,0,8.0,17.0,41,0.00,,,-99.99,WeatherLink 5.9.2,2013-01-24 16:30:00,
2013-01-24 11:39:00,40.1,17.7,60.36,North,6,9.0,9.0,40,0.00,,,0.00,Wunderground v.1.15,2013-01-24 16:39:00,
2013-01-24 11:50:00,40.0,17.6,60.36,North,5,5.0,5.0,40,0.00,,,0.00,Wunderground v.1.15,2013-01-24 16:50:00,
2013-01-24 11:59:00,39.9,16.9,60.36,North,0,7.0,7.0,39,0.00,,,0.00,Wunderground v.1.15,2013-01-24 16:59:00,
2013-01-24 12:00:00,39.6,17.2,30.23,North,0,8.0,23.0,40,0.00,,,-99.99,WeatherLink 5.9.2,2013-01-24 17:00:00,
2013-01-24 12:04:00,39.9,18.1,60.36,North,2,7.0,7.0,41,0.00,,,0.00,Wunderground v.1.15,2013-01-24 17:04:00,
2013-01-24 12:14:00,40.0,18.7,60.37,North,357,5.0,5.0,42,0.00,,,0.00,Wunderground v.1.15,2013-01-24 17:14:00,
2013-01-24 12:24:00,39.9,18.6,60.36,North,356,7.0,7.0,42,0.00,,,0.00,Wunderground v.1.15,2013-01-24 17:24:00,
2013-01-24 12:30:00,39.9,18.6,60.37,NNE,19,14.0,14.0,42,0.00,,,0.00,Wunderground v.1.15,2013-01-24 17:30:00,
2013-01-24 12:40:00,39.6,17.2,60.37,NNW,337,5.0,5.0,40,0.00,,,0.00,Wunderground v.1.15,2013-01-24 17:40:00,
2013-01-24 12:49:00,39.6,17.8,60.37,North,8,1.0,1.0,41,0.00,,,0.00,Wunderground v.1.15,2013-01-24 17:49:00,
2013-01-24 12:54:00,39.8,16.8,60.37,NW,325,2.0,2.0,39,0.00,,,0.00,Wunderground v.1.15,2013-01-24 17:54:00,
2013-01-24 13:00:00,37.9,15.7,30.28,North,0,9.0,23.0,40,0.00,,,-99.99,WeatherLink 5.9.2,2013-01-24 18:00:00,
2013-01-24 13:04:00,39.0,16.7,60.38,NNE,24,14.0,14.0,40,0.00,,,0.00,Wunderground v.1.15,2013-01-24 18:04:00,
2013-01-24 13:09:00,38.8,16.5,60.38,North,5,10.0,10.0,40,0.00,,,0.00,Wunderground v.1.15,2013-01-24 18:09:00,
2013-01-24 13:20:00,38.9,16.0,60.39,North,357,16.0,16.0,39,0.00,,,0.00,Wunderground v.1.15,2013-01-24 18:20:00,
2013-01-24 13:29:00,38.5,15.1,60.39,NNW,333,13.0,13.0,38,0.00,,,0.00,Wunderground v.1.15,2013-01-24 18:29:00,
2013-01-24 13:30:00,36.5,13.3,30.31,North,0,9.0,24.0,38,0.00,,,-99.99,WeatherLink 5.9.2,2013-01-24 18:30:00,
2013-01-24 13:35:00,38.3,14.3,60.39,North,1,3.0,13.0,37,0.00,,,0.00,Wunderground v.1.15,2013-01-24 18:35:00,
2013-01-24 13:44:00,38.2,14.8,60.40,North,4,11.0,11.0,38,0.00,,,0.00,Wunderground v.1.15,2013-01-24 18:44:00,
2013-01-24 13:54:00,37.9,14.5,60.41,NNE,15,14.0,14.0,38,0.00,,,0.00,Wunderground v.1.15,2013-01-24 18:54:00,
2013-01-24 13:59:00,37.4,14.7,60.41,NNW,346,2.0,2.0,39,0.00,,,0.00,Wunderground v.1.15,2013-01-24 18:59:00,
2013-01-24 14:00:00,35.5,10.5,30.33,North,0,8.0,21.0,35,0.00,,,-99.99,WeatherLink 5.9.2,2013-01-24 19:00:00,
2013-01-24 14:09:00,37.1,15.0,60.43,NNW,348,16.0,16.0,40,0.00,,,0.00,Wunderground v.1.15,2013-01-24 19:09:00,
2013-01-24 14:19:00,36.5,12.7,60.43,NW,326,10.0,10.0,37,0.00,,,0.00,Wunderground v.1.15,2013-01-24 19:19:00,
2013-01-24 14:29:00,36.0,13.4,60.44,North,2,5.0,5.0,39,0.00,,,0.00,Wunderground v.1.15,2013-01-24 19:29:00,
2013-01-24 14:30:00,35.3,9.0,30.35,North,0,11.0,26.0,33,0.00,,,-99.99,WeatherLink 5.9.2,2013-01-24 19:30:00,
2013-01-24 14:39:00,35.6,12.5,60.45,North,359,7.0,7.0,38,0.00,,,0.00,Wunderground v.1.15,2013-01-24 19:39:00,
2013-01-24 14:49:00,35.3,11.6,60.46,North,2,3.0,3.0,37,0.00,,,0.00,Wunderground v.1.15,2013-01-24 19:49:00,
2013-01-24 14:59:00,35.7,10.7,60.47,North,3,3.0,3.0,35,0.00,,,0.00,Wunderground v.1.15,2013-01-24 19:59:00,
2013-01-24 15:00:00,34.3,6.7,30.37,North,0,9.0,26.0,31,0.00,,,-99.99,WeatherLink 5.9.2,2013-01-24 20:00:00,
2013-01-24 15:09:00,35.6,10.6,60.47,NW,324,8.0,8.0,35,0.00,,,0.00,Wunderground v.1.15,2013-01-24 20:09:00,
2013-01-24 15:19:00,35.4,9.8,60.48,NW,308,7.0,7.0,34,0.00,,,0.00,Wunderground v.1.15,2013-01-24 20:19:00,
2013-01-24 15:29:00,35.0,9.4,60.49,NNW,340,6.0,6.0,34,0.00,,,0.00,Wunderground v.1.15,2013-01-24 20:29:00,
2013-01-24 15:30:00,33.2,6.5,30.40,North,0,7.0,19.0,32,0.00,,,-99.99,WeatherLink 5.9.2,2013-01-24 20:30:00,
2013-01-24 15:34:00,34.6,8.4,60.50,North,0,12.0,12.0,33,0.00,,,0.00,Wunderground v.1.15,2013-01-24 20:34:00,
2013-01-24 15:44:00,34.4,8.2,60.51,NW,322,8.0,16.0,33,0.00,,,0.00,Wunderground v.1.15,2013-01-24 20:44:00,
2013-01-24 15:54:00,34.3,6.7,60.51,NNE,27,9.0,13.0,31,0.00,,,0.00,Wunderground v.1.15,2013-01-24 20:54:00,
2013-01-24 15:59:00,34.1,5.9,60.51,NW,326,11.0,11.0,30,0.00,,,0.00,Wunderground v.1.15,2013-01-24 20:59:00,
2013-01-24 16:00:00,31.2,4.7,30.42,North,0,7.0,21.0,32,0.00,,,-99.99,WeatherLink 5.9.2,2013-01-24 21:00:00,
2013-01-24 16:09:00,33.9,6.4,60.52,North,11,12.0,12.0,31,0.00,,,0.00,Wunderground v.1.15,2013-01-24 21:09:00,
2013-01-24 16:19:00,33.2,6.5,60.53,North,1,9.0,9.0,32,0.00,,,0.00,Wunderground v.1.15,2013-01-24 21:19:00,
2013-01-24 16:24:00,32.8,6.1,60.53,North,9,7.0,9.0,32,0.00,,,0.00,Wunderground v.1.15,2013-01-24 21:24:00,
2013-01-24 16:30:00,29.9,4.2,30.44,North,0,7.0,22.0,33,0.00,,,-99.99,WeatherLink 5.9.2,2013-01-24 21:30:00,
2013-01-24 16:34:00,32.1,5.5,60.54,NNW,347,12.0,12.0,32,0.00,,,0.00,Wunderground v.1.15,2013-01-24 21:34:00,
2013-01-24 16:39:00,31.8,5.9,60.55,NNE,13,9.0,9.0,33,0.00,,,0.00,Wunderground v.1.15,2013-01-24 21:39:00,
2013-01-24 16:49:00,31.3,5.5,60.56,North,358,14.0,14.0,33,0.00,,,0.00,Wunderground v.1.15,2013-01-24 21:49:00,
2013-01-24 16:59:00,30.7,4.3,60.56,NNW,340,5.0,5.0,32,0.00,,,0.00,Wunderground v.1.15,2013-01-24 21:59:00,
2013-01-24 17:00:00,28.8,5.2,30.47,North,0,6.0,20.0,36,0.00,,,-99.99,WeatherLink 5.9.2,2013-01-24 22:00:00,
2013-01-24 17:09:00,30.3,3.9,60.57,NNW,341,19.0,19.0,32,0.00,,,0.00,Wunderground v.1.15,2013-01-24 22:09:00,
2013-01-24 17:19:00,29.9,4.2,60.57,NNW,341,6.0,6.0,33,0.00,,,0.00,Wunderground v.1.15,2013-01-24 22:19:00,
2013-01-24 17:29:00,29.4,3.8,60.60,North,10,12.0,12.0,33,0.00,,,0.00,Wunderground v.1.15,2013-01-24 22:29:00,
2013-01-24 17:30:00,28.1,4.5,30.49,North,0,5.0,18.0,36,0.00,,,-99.99,WeatherLink 5.9.2,2013-01-24 22:30:00,
2013-01-24 17:39:00,29.1,3.5,60.60,North,351,11.0,11.0,33,0.00,,,0.00,Wunderground v.1.15,2013-01-24 22:39:00,
2013-01-24 17:49:00,28.7,3.8,60.60,North,354,6.0,6.0,34,0.00,,,0.00,Wunderground v.1.15,2013-01-24 22:49:00,
2013-01-24 17:59:00,28.5,4.3,60.62,North,10,7.0,7.0,35,0.00,,,0.00,Wunderground v.1.15,2013-01-24 22:59:00,
2013-01-24 18:00:00,27.5,4.6,30.49,North,0,4.0,13.0,37,0.00,,,-99.99,WeatherLink 5.9.2,2013-01-24 23:00:00,
2013-01-24 18:09:00,28.2,4.6,60.61,NNE,21,6.0,6.0,36,0.00,,,0.00,Wunderground v.1.15,2013-01-24 23:09:00,
2013-01-24 18:14:00,28.2,4.6,60.62,NNE,13,11.0,11.0,36,0.00,,,0.00,Wunderground v.1.15,2013-01-24 23:14:00,
2013-01-24 18:24:00,28.0,3.8,60.62,North,5,7.0,7.0,35,0.00,,,0.00,Wunderground v.1.15,2013-01-24 23:24:00,
2013-01-24 18:29:00,28.0,4.4,60.63,North,6,6.0,6.0,36,0.00,,,0.00,Wunderground v.1.15,2013-01-24 23:29:00,
2013-01-24 18:30:00,27.1,5.4,30.49,North,0,3.0,11.0,39,0.00,,,-99.99,WeatherLink 5.9.2,2013-01-24 23:30:00,
2013-01-24 18:39:00,27.7,4.2,60.63,North,3,3.0,3.0,36,0.00,,,0.00,Wunderground v.1.15,2013-01-24 23:39:00,
2013-01-24 18:44:00,27.6,4.1,60.63,North,357,4.0,4.0,36,0.00,,,0.00,Wunderground v.1.15,2013-01-24 23:44:00,
2013-01-24 18:54:00,27.3,4.4,60.63,NNE,16,2.0,4.0,37,0.00,,,0.00,Wunderground v.1.15,2013-01-24 23:54:00,
2013-01-24 18:59:00,27.1,4.2,60.64,NNE,15,6.0,6.0,37,0.00,,,0.00,Wunderground v.1.15,2013-01-24 23:59:00,
2013-01-24 19:00:00,27.0,4.1,30.50,North,0,4.0,13.0,37,0.00,,,-99.99,WeatherLink 5.9.2,2013-01-25 00:00:00,
2013-01-24 19:09:00,27.2,4.9,60.64,North,358,4.0,4.0,38,0.00,,,0.00,Wunderground v.1.15,2013-01-25 00:09:00,
2013-01-24 19:19:00,27.1,4.8,60.64,North,353,4.0,4.0,38,0.00,,,0.00,Wunderground v.1.15,2013-01-25 00:19:00,
2013-01-24 19:24:00,26.9,5.2,60.64,NE,53,5.0,5.0,39,0.00,,,0.00,Wunderground v.1.15,2013-01-25 00:24:00,
2013-01-24 19:30:00,26.6,3.2,30.51,North,0,3.0,16.0,36,0.00,,,-99.99,WeatherLink 5.9.2,2013-01-25 00:30:00,
2013-01-24 19:34:00,27.0,5.3,60.63,North,10,0.0,5.0,39,0.00,,,0.00,Wunderground v.1.15,2013-01-25 00:34:00,
2013-01-24 19:39:00,27.0,5.3,60.63,NE,39,5.0,5.0,39,0.00,,,0.00,Wunderground v.1.15,2013-01-25 00:39:00,
2013-01-24 19:49:00,27.1,5.4,60.64,NNE,32,5.0,5.0,39,0.00,,,0.00,Wunderground v.1.15,2013-01-25 00:49:00,
2013-01-24 19:59:00,27.0,4.1,60.65,North,357,8.0,8.0,37,0.00,,,0.00,Wunderground v.1.15,2013-01-25 00:59:00,
2013-01-24 20:00:00,26.4,4.8,30.51,North,0,3.0,13.0,39,0.00,,,-99.99,WeatherLink 5.9.2,2013-01-25 01:00:00,
2013-01-24 20:04:00,27.1,4.2,60.65,North,1,0.0,8.0,37,0.00,,,0.00,Wunderground v.1.15,2013-01-25 01:04:00,
2013-01-24 20:14:00,26.4,4.2,60.66,North,0,0.0,0.0,38,0.00,,,0.00,Wunderground v.1.15,2013-01-25 01:14:00,
2013-01-24 20:24:00,26.5,3.1,60.65,North,0,1.0,3.0,36,0.00,,,0.00,Wunderground v.1.15,2013-01-25 01:24:00,
2013-01-24 20:30:00,26.3,4.7,30.51,North,0,3.0,11.0,39,0.00,,,-99.99,WeatherLink 5.9.2,2013-01-25 01:30:00,
2013-01-24 20:34:00,26.6,3.8,60.66,North,5,0.0,3.0,37,0.00,,,0.00,Wunderground v.1.15,2013-01-25 01:34:00,
2013-01-24 20:44:00,26.5,3.7,60.66,North,354,1.0,5.0,37,0.00,,,0.00,Wunderground v.1.15,2013-01-25 01:44:00,
2013-01-24 20:49:00,26.3,3.5,60.65,North,9,6.0,6.0,37,0.00,,,0.00,Wunderground v.1.15,2013-01-25 01:49:00,
2013-01-24 20:59:00,26.2,4.6,60.66,NE,37,0.0,0.0,39,0.00,,,0.00,Wunderground v.1.15,2013-01-25 01:59:00,
2013-01-24 21:00:00,25.9,6.4,30.51,North,0,2.0,9.0,43,0.00,,,-99.99,WeatherLink 5.9.2,2013-01-25 02:00:00,
2013-01-24 21:04:00,26.2,4.6,60.65,NNW,347,7.0,7.0,39,0.00,,,0.00,Wunderground v.1.15,2013-01-25 02:04:00,
2013-01-24 21:14:00,26.4,4.2,60.66,North,10,7.0,7.0,38,0.00,,,0.00,Wunderground v.1.15,2013-01-25 02:14:00,
2013-01-24 21:24:00,26.3,3.5,60.66,North,6,5.0,5.0,37,0.00,,,0.00,Wunderground v.1.15,2013-01-25 02:24:00,
2013-01-24 21:30:00,25.5,6.1,30.52,NNE,22,2.0,11.0,43,0.00,,,-99.99,WeatherLink 5.9.2,2013-01-25 02:30:00,
2013-01-24 21:34:00,26.2,4.6,60.65,North,3,0.0,1.0,39,0.00,,,0.00,Wunderground v.1.15,2013-01-25 02:34:00,
2013-01-24 21:39:00,25.9,4.3,60.66,North,359,3.0,3.0,39,0.00,,,0.00,Wunderground v.1.15,2013-01-25 02:39:00,
2013-01-24 21:44:00,25.9,5.4,60.66,NNE,27,9.0,9.0,41,0.00,,,0.00,Wunderground v.1.15,2013-01-25 02:44:00,
2013-01-24 21:54:00,25.8,5.3,60.66,NNE,24,0.0,5.0,41,0.00,,,0.00,Wunderground v.1.15,2013-01-25 02:54:00,
2013-01-24 21:59:00,25.5,6.1,60.67,NNE,29,0.0,0.0,43,0.00,,,0.00,Wunderground v.1.15,2013-01-25 02:59:00,
2013-01-24 22:00:00,25.6,5.1,30.50,North,0,3.0,15.0,41,0.00,,,-99.99,WeatherLink 5.9.2,2013-01-25 03:00:00,
2013-01-24 22:09:00,25.6,6.2,60.66,NNE,16,0.0,0.0,43,0.00,,,0.00,Wunderground v.1.15,2013-01-25 03:09:00,
2013-01-24 22:19:00,25.4,6.5,60.66,North,357,4.0,4.0,44,0.00,,,0.00,Wunderground v.1.15,2013-01-25 03:19:00,
2013-01-24 22:29:00,25.5,6.1,60.66,NNE,17,3.0,3.0,43,0.00,,,0.00,Wunderground v.1.15,2013-01-25 03:29:00,
2013-01-24 22:30:00,25.9,4.3,30.52,NNE,22,4.0,14.0,39,0.00,,,-99.99,WeatherLink 5.9.2,2013-01-25 03:30:00,
2013-01-24 22:39:00,25.6,6.2,60.66,NNE,24,2.0,2.0,43,0.00,,,0.00,Wunderground v.1.15,2013-01-25 03:39:00,
2013-01-24 22:49:00,25.7,6.3,60.65,North,6,1.0,1.0,43,0.00,,,0.00,Wunderground v.1.15,2013-01-25 03:49:00,
2013-01-24 22:54:00,25.6,6.2,60.66,NE,53,2.0,2.0,43,0.00,,,0.00,Wunderground v.1.15,2013-01-25 03:54:00,
2013-01-24 23:00:00,26.0,4.9,30.50,NNE,22,4.0,16.0,40,0.00,,,-99.99,WeatherLink 5.9.2,2013-01-25 04:00:00,
2013-01-24 23:04:00,25.5,5.0,60.65,NNE,20,5.0,5.0,41,0.00,,,0.00,Wunderground v.1.15,2013-01-25 04:04:00,
2013-01-24 23:09:00,25.9,5.4,60.65,NE,36,8.0,8.0,41,0.00,,,0.00,Wunderground v.1.15,2013-01-25 04:09:00,
2013-01-24 23:19:00,25.8,5.3,60.65,NE,39,7.0,7.0,41,0.00,,,0.00,Wunderground v.1.15,2013-01-25 04:19:00,
2013-01-24 23:24:00,25.9,4.9,60.66,North,4,7.0,7.0,40,0.00,,,0.00,Wunderground v.1.15,2013-01-25 04:24:00,
2013-01-24 23:30:00,25.8,3.1,30.50,North,0,4.0,15.0,37,0.00,,,-99.99,WeatherLink 5.9.2,2013-01-25 04:30:00,
2013-01-24 23:34:00,26.0,4.4,60.66,North,6,5.0,5.0,39,0.00,,,0.00,Wunderground v.1.15,2013-01-25 04:34:00,
2013-01-24 23:39:00,25.9,4.9,60.65,North,5,6.0,6.0,40,0.00,,,0.00,Wunderground v.1.15,2013-01-25 04:39:00,
2013-01-24 23:49:00,26.0,4.9,60.65,North,1,9.0,9.0,40,0.00,,,0.00,Wunderground v.1.15,2013-01-25 04:49:00,
2013-01-24 23:59:00,25.9,4.9,60.64,NNE,21,4.0,4.0,40,0.00,,,0.00,Wunderground v.1.15,2013-01-25 04:59:00,